createdAt,value
2019-05-19T00:00:42.556Z,13.80
2019-05-19T00:05:34.980Z,13.90
2019-05-19T00:10:27.253Z,13.80
2019-05-19T00:15:20.221Z,13.80
2019-05-19T00:20:12.199Z,13.80
2019-05-19T00:25:05.597Z,13.90
2019-05-19T00:29:57.581Z,13.90
2019-05-19T00:34:49.590Z,13.80
2019-05-19T00:39:41.871Z,13.80
2019-05-19T00:44:33.845Z,13.70
2019-05-19T00:49:25.897Z,13.60
2019-05-19T00:54:25.889Z,13.60
2019-05-19T00:59:17.550Z,13.50
2019-05-19T01:04:17.789Z,13.50
2019-05-19T01:09:08.583Z,13.40
2019-05-19T01:14:02.653Z,13.30
2019-05-19T01:18:54.276Z,13.20
2019-05-19T01:23:46.239Z,13.20
2019-05-19T01:28:48.725Z,13.20
2019-05-19T01:33:39.069Z,13.10
2019-05-19T01:38:31.334Z,13.10
2019-05-19T01:43:23.378Z,13.00
2019-05-19T01:48:15.394Z,13.00
2019-05-19T01:53:15.439Z,13.00
2019-05-19T04:26:16.692Z,12.20
2019-05-19T04:31:04.617Z,12.20
2019-05-19T04:36:06.356Z,12.30
2019-05-19T04:40:56.906Z,12.30
2019-05-19T04:45:49.219Z,12.50
2019-05-19T04:50:49.536Z,12.70
2019-05-19T04:55:40.537Z,12.90
2019-05-19T05:00:33.500Z,13.00
2019-05-19T05:05:25.814Z,13.10
2019-05-19T05:10:18.703Z,13.20
2019-05-19T05:15:11.112Z,13.40
2019-05-19T05:20:03.972Z,13.60
2019-05-19T05:24:56.706Z,13.60
2019-05-19T05:29:48.887Z,13.60
2019-05-19T05:34:41.114Z,13.80
2019-05-19T05:39:41.533Z,13.90
2019-05-19T05:44:32.167Z,14.00
2019-05-19T05:49:24.159Z,14.20
2019-05-19T05:54:16.202Z,14.30
2019-05-19T05:59:10.329Z,14.40
2019-05-19T06:04:02.155Z,14.50
2019-05-19T06:08:54.095Z,14.60
2019-05-19T06:13:54.632Z,14.80
2019-05-19T06:18:45.102Z,15.00
2019-05-19T06:23:37.278Z,15.10
2019-05-19T06:28:29.478Z,15.50
2019-05-19T06:33:22.079Z,16.20
2019-05-19T06:38:13.863Z,16.80
2019-05-19T06:43:15.458Z,17.50
2019-05-19T06:48:09.170Z,18.10
2019-05-19T06:53:14.290Z,18.50
2019-05-19T06:58:07.065Z,18.30
2019-05-19T07:03:01.517Z,17.80
2019-05-19T07:07:53.928Z,17.50
2019-05-19T07:12:48.093Z,17.20
2019-05-19T07:17:44.399Z,17.00
2019-05-19T07:22:39.902Z,16.70
2019-05-19T07:27:32.066Z,16.50
2019-05-19T07:32:24.343Z,16.60
2019-05-19T07:37:27.134Z,16.60
2019-05-19T07:42:23.237Z,16.90
2019-05-19T07:47:14.833Z,17.10
2019-05-19T07:52:09.420Z,17.30
2019-05-19T07:57:06.247Z,17.40
2019-05-19T08:02:03.191Z,17.40
2019-05-19T08:06:55.637Z,17.70
2019-05-19T08:11:52.319Z,17.90
2019-05-19T08:16:47.090Z,17.90
2019-05-19T08:21:49.645Z,18.10
2019-05-19T08:26:42.459Z,18.40
2019-05-19T08:31:41.306Z,18.70
2019-05-19T08:36:40.651Z,19.10
2019-05-19T08:41:42.107Z,19.50
2019-05-19T08:46:40.053Z,19.90
2019-05-19T08:51:36.715Z,20.20
2019-05-19T08:56:28.956Z,20.60
2019-05-19T09:01:25.269Z,21.10
2019-05-19T09:06:17.536Z,21.70
2019-05-19T09:11:10.140Z,22.30
2019-05-19T09:16:02.815Z,22.80
2019-05-19T09:21:07.413Z,23.10
2019-05-19T09:26:03.393Z,23.40
2019-05-19T09:30:57.078Z,24.00
2019-05-19T09:35:51.733Z,24.70
2019-05-19T09:40:44.515Z,25.20
2019-05-19T09:51:06.750Z,26.20
2019-05-19T09:55:59.108Z,26.60
2019-05-19T10:00:51.285Z,26.40
2019-05-19T10:05:43.359Z,26.30
2019-05-19T10:10:35.815Z,25.70
2019-05-19T21:54:10.824Z,25.30
